sensor_id;sensor_type;location;lat;lon;timestamp;temperature;humidity
23991;DHT22;12205;50.600;4.608;2023-07-16T00:02:00;17.30;99.90
23991;DHT22;12205;50.600;4.608;2023-07-16T00:04:27;17.30;99.90
23991;DHT22;12205;50.600;4.608;2023-07-16T00:06:54;17.30;99.90
23991;DHT22;12205;50.600;4.608;2023-07-16T00:09:23;17.20;99.90
23991;DHT22;12205;50.600;4.608;2023-07-16T00:11:50;17.20;99.90
23991;DHT22;12205;50.600;4.608;2023-07-16T00:14:17;17.10;99.90
23991;DHT22;12205;50.600;4.608;2023-07-16T00:16:44;17.00;99.90
23991;DHT22;12205;50.600;4.608;2023-07-16T00:19:11;17.00;99.90
23991;DHT22;12205;50.600;4.608;2023-07-16T00:21:39;16.90;99.90
23991;DHT22;12205;50.600;4.608;2023-07-16T00:24:06;16.90;99.90
23991;DHT22;12205;50.600;4.608;2023-07-16T00:26:34;16.90;99.90
23991;DHT22;12205;50.600;4.608;2023-07-16T00:29:01;16.90;99.90
23991;DHT22;12205;50.600;4.608;2023-07-16T00:31:28;16.90;99.90
23991;DHT22;12205;50.600;4.608;2023-07-16T00:33:55;16.90;99.90
23991;DHT22;12205;50.600;4.608;2023-07-16T00:36:23;16.90;99.90
23991;DHT22;12205;50.600;4.608;2023-07-16T00:38:50;16.90;99.90
23991;DHT22;12205;50.600;4.608;2023-07-16T00:41:17;17.00;99.90
23991;DHT22;12205;50.600;4.608;2023-07-16T00:43:45;17.00;99.90
23991;DHT22;12205;50.600;4.608;2023-07-16T00:46:12;17.00;99.90
23991;DHT22;12205;50.600;4.608;2023-07-16T00:48:40;17.00;99.90
23991;DHT22;12205;50.600;4.608;2023-07-16T00:51:09;17.00;99.90
23991;DHT22;12205;50.600;4.608;2023-07-16T00:53:37;16.90;99.90
23991;DHT22;12205;50.600;4.608;2023-07-16T00:56:05;16.80;99.90
23991;DHT22;12205;50.600;4.608;2023-07-16T00:58:34;16.70;99.90
23991;DHT22;12205;50.600;4.608;2023-07-16T01:01:02;16.70;99.90
23991;DHT22;12205;50.600;4.608;2023-07-16T01:03:29;16.60;99.90
23991;DHT22;12205;50.600;4.608;2023-07-16T01:06:10;16.60;99.90
23991;DHT22;12205;50.600;4.608;2023-07-16T01:08:42;16.50;99.90
23991;DHT22;12205;50.600;4.608;2023-07-16T01:11:13;16.40;99.90
23991;DHT22;12205;50.600;4.608;2023-07-16T01:13:43;16.40;99.90
23991;DHT22;12205;50.600;4.608;2023-07-16T01:16:19;16.40;99.90
23991;DHT22;12205;50.600;4.608;2023-07-16T01:18:47;16.30;99.90
23991;DHT22;12205;50.600;4.608;2023-07-16T01:21:14;16.30;99.90
23991;DHT22;12205;50.600;4.608;2023-07-16T01:24:00;16.30;99.90
23991;DHT22;12205;50.600;4.608;2023-07-16T01:26:59;16.30;99.90
23991;DHT22;12205;50.600;4.608;2023-07-16T01:29:43;16.20;99.90
23991;DHT22;12205;50.600;4.608;2023-07-16T01:32:17;16.10;99.90
23991;DHT22;12205;50.600;4.608;2023-07-16T01:34:45;16.20;99.90
23991;DHT22;12205;50.600;4.608;2023-07-16T01:37:12;16.10;99.90
23991;DHT22;12205;50.600;4.608;2023-07-16T01:39:40;16.10;99.90
23991;DHT22;12205;50.600;4.608;2023-07-16T01:42:07;16.00;99.90
23991;DHT22;12205;50.600;4.608;2023-07-16T01:44:34;16.00;99.90
23991;DHT22;12205;50.600;4.608;2023-07-16T01:47:09;15.90;99.90
23991;DHT22;12205;50.600;4.608;2023-07-16T01:49:37;15.90;99.90
23991;DHT22;12205;50.600;4.608;2023-07-16T01:52:06;15.90;99.90
23991;DHT22;12205;50.600;4.608;2023-07-16T01:54:34;15.90;99.90
23991;DHT22;12205;50.600;4.608;2023-07-16T01:57:01;15.90;99.90
23991;DHT22;12205;50.600;4.608;2023-07-16T01:59:29;15.90;99.90
23991;DHT22;12205;50.600;4.608;2023-07-16T02:01:56;15.90;99.90
23991;DHT22;12205;50.600;4.608;2023-07-16T02:04:24;15.90;99.90
23991;DHT22;12205;50.600;4.608;2023-07-16T02:06:51;15.90;99.90
23991;DHT22;12205;50.600;4.608;2023-07-16T02:09:22;15.80;99.90
23991;DHT22;12205;50.600;4.608;2023-07-16T02:11:50;15.80;99.90
23991;DHT22;12205;50.600;4.608;2023-07-16T02:14:17;15.80;99.90
23991;DHT22;12205;50.600;4.608;2023-07-16T02:16:45;15.80;99.90
23991;DHT22;12205;50.600;4.608;2023-07-16T02:19:12;15.80;99.90
23991;DHT22;12205;50.600;4.608;2023-07-16T02:21:40;15.80;99.90
23991;DHT22;12205;50.600;4.608;2023-07-16T02:24:07;15.70;99.90
23991;DHT22;12205;50.600;4.608;2023-07-16T02:26:34;15.70;99.90
23991;DHT22;12205;50.600;4.608;2023-07-16T02:29:01;15.70;99.90
23991;DHT22;12205;50.600;4.608;2023-07-16T02:31:28;15.70;99.90
23991;DHT22;12205;50.600;4.608;2023-07-16T02:33:56;15.60;99.90
23991;DHT22;12205;50.600;4.608;2023-07-16T02:36:23;15.60;99.90
23991;DHT22;12205;50.600;4.608;2023-07-16T02:38:51;15.50;99.90
23991;DHT22;12205;50.600;4.608;2023-07-16T02:41:18;15.50;99.90
23991;DHT22;12205;50.600;4.608;2023-07-16T02:43:45;15.50;99.90
23991;DHT22;12205;50.600;4.608;2023-07-16T02:46:13;15.50;99.90
23991;DHT22;12205;50.600;4.608;2023-07-16T02:48:40;15.40;99.90
23991;DHT22;12205;50.600;4.608;2023-07-16T02:51:08;15.50;99.90
23991;DHT22;12205;50.600;4.608;2023-07-16T02:53:35;15.40;99.90
23991;DHT22;12205;50.600;4.608;2023-07-16T02:56:04;15.40;99.90
23991;DHT22;12205;50.600;4.608;2023-07-16T02:58:31;15.30;99.90
23991;DHT22;12205;50.600;4.608;2023-07-16T03:00:59;15.30;99.90
23991;DHT22;12205;50.600;4.608;2023-07-16T03:03:26;15.30;99.90
23991;DHT22;12205;50.600;4.608;2023-07-16T03:05:54;15.30;99.90
23991;DHT22;12205;50.600;4.608;2023-07-16T03:08:23;15.20;99.90
23991;DHT22;12205;50.600;4.608;2023-07-16T03:10:55;15.20;99.90
23991;DHT22;12205;50.600;4.608;2023-07-16T03:13:24;15.20;99.90
23991;DHT22;12205;50.600;4.608;2023-07-16T03:15:51;15.10;99.90
23991;DHT22;12205;50.600;4.608;2023-07-16T03:18:19;15.20;99.90
23991;DHT22;12205;50.600;4.608;2023-07-16T03:20:46;15.10;99.90
23991;DHT22;12205;50.600;4.608;2023-07-16T03:23:13;15.00;99.90
23991;DHT22;12205;50.600;4.608;2023-07-16T03:25:41;15.00;99.90
23991;DHT22;12205;50.600;4.608;2023-07-16T03:28:08;15.00;99.90
23991;DHT22;12205;50.600;4.608;2023-07-16T03:30:36;15.00;99.90
23991;DHT22;12205;50.600;4.608;2023-07-16T03:33:04;15.00;99.90
23991;DHT22;12205;50.600;4.608;2023-07-16T03:35:31;15.00;99.90
23991;DHT22;12205;50.600;4.608;2023-07-16T03:37:58;14.90;99.90
23991;DHT22;12205;50.600;4.608;2023-07-16T03:40:27;14.90;99.90
23991;DHT22;12205;50.600;4.608;2023-07-16T03:42:54;14.90;99.90
23991;DHT22;12205;50.600;4.608;2023-07-16T03:45:24;15.00;99.90
23991;DHT22;12205;50.600;4.608;2023-07-16T03:47:53;15.00;99.90
23991;DHT22;12205;50.600;4.608;2023-07-16T03:50:20;15.00;99.90
23991;DHT22;12205;50.600;4.608;2023-07-16T03:52:48;15.00;99.90
23991;DHT22;12205;50.600;4.608;2023-07-16T03:55:15;15.00;99.90
23991;DHT22;12205;50.600;4.608;2023-07-16T03:57:42;15.00;99.90
23991;DHT22;12205;50.600;4.608;2023-07-16T04:00:10;15.00;99.90
23991;DHT22;12205;50.600;4.608;2023-07-16T04:02:40;15.00;99.90
23991;DHT22;12205;50.600;4.608;2023-07-16T04:05:13;15.00;99.90
23991;DHT22;12205;50.600;4.608;2023-07-16T04:07:40;15.00;99.90
23991;DHT22;12205;50.600;4.608;2023-07-16T04:10:08;15.00;99.90
23991;DHT22;12205;50.600;4.608;2023-07-16T04:12:35;15.00;99.90
23991;DHT22;12205;50.600;4.608;2023-07-16T04:15:07;14.90;99.90
23991;DHT22;12205;50.600;4.608;2023-07-16T04:17:36;14.90;99.90
23991;DHT22;12205;50.600;4.608;2023-07-16T04:20:04;14.90;99.90
23991;DHT22;12205;50.600;4.608;2023-07-16T04:22:34;14.90;99.90
23991;DHT22;12205;50.600;4.608;2023-07-16T04:25:02;14.80;99.90
23991;DHT22;12205;50.600;4.608;2023-07-16T04:27:29;14.90;99.90
23991;DHT22;12205;50.600;4.608;2023-07-16T04:29:56;14.90;99.90
23991;DHT22;12205;50.600;4.608;2023-07-16T04:32:23;14.90;99.90
23991;DHT22;12205;50.600;4.608;2023-07-16T04:34:50;15.00;99.90
23991;DHT22;12205;50.600;4.608;2023-07-16T04:37:17;15.00;99.90
23991;DHT22;12205;50.600;4.608;2023-07-16T04:39:46;15.00;99.90
23991;DHT22;12205;50.600;4.608;2023-07-16T04:42:13;15.10;99.90
23991;DHT22;12205;50.600;4.608;2023-07-16T04:44:42;15.10;99.90
23991;DHT22;12205;50.600;4.608;2023-07-16T04:47:09;15.20;99.90
23991;DHT22;12205;50.600;4.608;2023-07-16T04:49:36;15.10;99.90
23991;DHT22;12205;50.600;4.608;2023-07-16T04:52:04;15.20;99.90
23991;DHT22;12205;50.600;4.608;2023-07-16T04:54:35;15.10;99.90
23991;DHT22;12205;50.600;4.608;2023-07-16T04:57:06;15.10;99.90
23991;DHT22;12205;50.600;4.608;2023-07-16T04:59:34;15.20;99.90
23991;DHT22;12205;50.600;4.608;2023-07-16T05:02:04;15.20;99.90
23991;DHT22;12205;50.600;4.608;2023-07-16T05:04:32;15.20;99.90
23991;DHT22;12205;50.600;4.608;2023-07-16T05:07:00;15.10;99.90
23991;DHT22;12205;50.600;4.608;2023-07-16T05:09:27;15.20;99.90
23991;DHT22;12205;50.600;4.608;2023-07-16T05:11:54;15.30;99.90
23991;DHT22;12205;50.600;4.608;2023-07-16T05:14:25;15.30;99.90
23991;DHT22;12205;50.600;4.608;2023-07-16T05:16:53;15.30;99.90
23991;DHT22;12205;50.600;4.608;2023-07-16T05:19:21;15.40;99.90
23991;DHT22;12205;50.600;4.608;2023-07-16T05:21:48;15.40;99.90
23991;DHT22;12205;50.600;4.608;2023-07-16T05:24:15;15.40;99.90
23991;DHT22;12205;50.600;4.608;2023-07-16T05:26:42;15.50;99.90
23991;DHT22;12205;50.600;4.608;2023-07-16T05:29:09;15.50;99.90
23991;DHT22;12205;50.600;4.608;2023-07-16T05:31:38;15.60;99.90
23991;DHT22;12205;50.600;4.608;2023-07-16T05:34:05;15.60;99.90
23991;DHT22;12205;50.600;4.608;2023-07-16T05:36:33;15.60;99.90
23991;DHT22;12205;50.600;4.608;2023-07-16T05:39:00;15.70;99.90
23991;DHT22;12205;50.600;4.608;2023-07-16T05:41:27;15.70;99.90
23991;DHT22;12205;50.600;4.608;2023-07-16T05:43:54;15.70;99.90
23991;DHT22;12205;50.600;4.608;2023-07-16T05:46:21;15.70;99.90
23991;DHT22;12205;50.600;4.608;2023-07-16T05:48:49;15.70;99.90
23991;DHT22;12205;50.600;4.608;2023-07-16T05:51:17;15.80;99.90
23991;DHT22;12205;50.600;4.608;2023-07-16T05:53:44;15.80;99.90
23991;DHT22;12205;50.600;4.608;2023-07-16T05:56:11;15.80;99.90
23991;DHT22;12205;50.600;4.608;2023-07-16T05:58:38;15.90;99.90
23991;DHT22;12205;50.600;4.608;2023-07-16T06:01:08;15.90;99.90
23991;DHT22;12205;50.600;4.608;2023-07-16T06:03:35;16.00;99.90
23991;DHT22;12205;50.600;4.608;2023-07-16T06:06:03;16.00;99.90
23991;DHT22;12205;50.600;4.608;2023-07-16T06:08:31;16.00;99.90
23991;DHT22;12205;50.600;4.608;2023-07-16T06:10:58;16.10;99.90
23991;DHT22;12205;50.600;4.608;2023-07-16T06:13:25;16.10;99.90
23991;DHT22;12205;50.600;4.608;2023-07-16T06:15:52;16.20;99.90
23991;DHT22;12205;50.600;4.608;2023-07-16T06:18:19;16.20;99.90
23991;DHT22;12205;50.600;4.608;2023-07-16T06:20:46;16.20;99.90
23991;DHT22;12205;50.600;4.608;2023-07-16T06:23:15;16.30;99.90
23991;DHT22;12205;50.600;4.608;2023-07-16T06:25:43;16.30;99.90
23991;DHT22;12205;50.600;4.608;2023-07-16T06:28:10;16.30;99.90
23991;DHT22;12205;50.600;4.608;2023-07-16T06:30:37;16.40;99.90
23991;DHT22;12205;50.600;4.608;2023-07-16T06:33:05;16.50;99.90
23991;DHT22;12205;50.600;4.608;2023-07-16T06:35:32;16.60;99.90
23991;DHT22;12205;50.600;4.608;2023-07-16T06:37:59;16.60;99.90
23991;DHT22;12205;50.600;4.608;2023-07-16T06:40:28;16.60;99.90
23991;DHT22;12205;50.600;4.608;2023-07-16T06:42:55;16.60;99.90
23991;DHT22;12205;50.600;4.608;2023-07-16T06:45:23;16.60;99.90
23991;DHT22;12205;50.600;4.608;2023-07-16T06:47:50;16.70;99.90
23991;DHT22;12205;50.600;4.608;2023-07-16T06:50:17;16.70;99.90
23991;DHT22;12205;50.600;4.608;2023-07-16T06:52:44;16.70;99.90
23991;DHT22;12205;50.600;4.608;2023-07-16T06:55:12;16.80;99.90
23991;DHT22;12205;50.600;4.608;2023-07-16T06:57:40;16.70;99.90
23991;DHT22;12205;50.600;4.608;2023-07-16T07:00:08;16.80;99.90
23991;DHT22;12205;50.600;4.608;2023-07-16T07:02:37;16.80;99.90
23991;DHT22;12205;50.600;4.608;2023-07-16T07:05:04;16.90;99.90
23991;DHT22;12205;50.600;4.608;2023-07-16T07:07:32;16.90;99.90
23991;DHT22;12205;50.600;4.608;2023-07-16T07:09:59;17.00;99.90
23991;DHT22;12205;50.600;4.608;2023-07-16T07:12:26;17.10;99.90
23991;DHT22;12205;50.600;4.608;2023-07-16T07:14:54;17.10;99.90
23991;DHT22;12205;50.600;4.608;2023-07-16T07:17:22;17.10;99.90
23991;DHT22;12205;50.600;4.608;2023-07-16T07:19:49;17.20;99.90
23991;DHT22;12205;50.600;4.608;2023-07-16T07:22:16;17.30;99.90
23991;DHT22;12205;50.600;4.608;2023-07-16T07:24:43;17.40;99.90
23991;DHT22;12205;50.600;4.608;2023-07-16T07:27:10;17.40;99.90
23991;DHT22;12205;50.600;4.608;2023-07-16T07:29:37;17.40;99.90
23991;DHT22;12205;50.600;4.608;2023-07-16T07:32:06;17.40;99.90
23991;DHT22;12205;50.600;4.608;2023-07-16T07:34:34;17.40;99.90
23991;DHT22;12205;50.600;4.608;2023-07-16T07:37:01;17.40;99.90
23991;DHT22;12205;50.600;4.608;2023-07-16T07:39:28;17.40;99.90
23991;DHT22;12205;50.600;4.608;2023-07-16T07:41:55;17.50;99.90
23991;DHT22;12205;50.600;4.608;2023-07-16T07:44:22;17.60;99.90
23991;DHT22;12205;50.600;4.608;2023-07-16T07:46:49;17.60;99.90
23991;DHT22;12205;50.600;4.608;2023-07-16T07:49:17;17.70;99.90
23991;DHT22;12205;50.600;4.608;2023-07-16T07:51:44;17.80;99.90
23991;DHT22;12205;50.600;4.608;2023-07-16T07:54:14;17.80;99.90
23991;DHT22;12205;50.600;4.608;2023-07-16T07:56:41;17.90;99.90
23991;DHT22;12205;50.600;4.608;2023-07-16T07:59:09;18.00;99.90
23991;DHT22;12205;50.600;4.608;2023-07-16T08:01:36;18.10;99.90
23991;DHT22;12205;50.600;4.608;2023-07-16T08:04:03;18.20;99.90
23991;DHT22;12205;50.600;4.608;2023-07-16T08:06:31;18.20;99.90
23991;DHT22;12205;50.600;4.608;2023-07-16T08:08:58;18.30;99.90
23991;DHT22;12205;50.600;4.608;2023-07-16T08:11:25;18.20;99.90
23991;DHT22;12205;50.600;4.608;2023-07-16T08:13:52;18.20;99.90
23991;DHT22;12205;50.600;4.608;2023-07-16T08:16:20;18.30;99.90
23991;DHT22;12205;50.600;4.608;2023-07-16T08:18:47;18.40;99.90
23991;DHT22;12205;50.600;4.608;2023-07-16T08:21:14;18.50;99.90
23991;DHT22;12205;50.600;4.608;2023-07-16T08:23:47;18.70;99.90
23991;DHT22;12205;50.600;4.608;2023-07-16T08:26:14;18.70;99.90
23991;DHT22;12205;50.600;4.608;2023-07-16T08:28:41;18.80;99.90
23991;DHT22;12205;50.600;4.608;2023-07-16T08:31:09;18.80;99.90
23991;DHT22;12205;50.600;4.608;2023-07-16T08:33:37;19.00;99.90
23991;DHT22;12205;50.600;4.608;2023-07-16T08:36:04;19.10;99.90
23991;DHT22;12205;50.600;4.608;2023-07-16T08:38:31;19.20;99.90
23991;DHT22;12205;50.600;4.608;2023-07-16T08:41:01;19.30;99.90
23991;DHT22;12205;50.600;4.608;2023-07-16T08:43:28;19.40;99.90
23991;DHT22;12205;50.600;4.608;2023-07-16T08:45:56;19.50;99.90
23991;DHT22;12205;50.600;4.608;2023-07-16T08:48:23;19.50;99.90
23991;DHT22;12205;50.600;4.608;2023-07-16T08:50:51;19.60;99.90
23991;DHT22;12205;50.600;4.608;2023-07-16T08:53:18;19.70;99.90
23991;DHT22;12205;50.600;4.608;2023-07-16T08:55:46;19.80;99.90
23991;DHT22;12205;50.600;4.608;2023-07-16T08:58:15;19.70;99.90
23991;DHT22;12205;50.600;4.608;2023-07-16T09:00:44;19.50;99.90
23991;DHT22;12205;50.600;4.608;2023-07-16T09:03:12;19.60;99.90
23991;DHT22;12205;50.600;4.608;2023-07-16T09:05:39;19.70;99.90
23991;DHT22;12205;50.600;4.608;2023-07-16T09:08:07;19.80;99.90
23991;DHT22;12205;50.600;4.608;2023-07-16T09:10:34;20.00;99.90
23991;DHT22;12205;50.600;4.608;2023-07-16T09:13:01;20.10;99.90
23991;DHT22;12205;50.600;4.608;2023-07-16T09:15:30;20.20;99.90
23991;DHT22;12205;50.600;4.608;2023-07-16T09:18:00;20.30;99.90
23991;DHT22;12205;50.600;4.608;2023-07-16T09:20:27;20.40;99.90
23991;DHT22;12205;50.600;4.608;2023-07-16T09:22:56;20.40;99.90
23991;DHT22;12205;50.600;4.608;2023-07-16T09:25:27;20.40;99.90
23991;DHT22;12205;50.600;4.608;2023-07-16T09:27:57;20.40;99.90
23991;DHT22;12205;50.600;4.608;2023-07-16T09:30:24;20.40;99.90
23991;DHT22;12205;50.600;4.608;2023-07-16T09:32:53;20.40;99.90
23991;DHT22;12205;50.600;4.608;2023-07-16T09:35:20;20.60;99.90
23991;DHT22;12205;50.600;4.608;2023-07-16T09:37:47;20.70;99.90
23991;DHT22;12205;50.600;4.608;2023-07-16T09:40:16;20.90;99.90
23991;DHT22;12205;50.600;4.608;2023-07-16T09:42:44;21.00;99.90
23991;DHT22;12205;50.600;4.608;2023-07-16T09:45:16;21.00;99.90
23991;DHT22;12205;50.600;4.608;2023-07-16T09:47:45;21.00;99.90
23991;DHT22;12205;50.600;4.608;2023-07-16T09:50:14;21.10;99.90
23991;DHT22;12205;50.600;4.608;2023-07-16T09:52:41;21.10;99.90
23991;DHT22;12205;50.600;4.608;2023-07-16T09:55:09;21.20;99.90
23991;DHT22;12205;50.600;4.608;2023-07-16T09:57:40;21.00;99.90
23991;DHT22;12205;50.600;4.608;2023-07-16T10:00:10;20.90;99.90
23991;DHT22;12205;50.600;4.608;2023-07-16T10:02:41;21.10;99.90
23991;DHT22;12205;50.600;4.608;2023-07-16T10:05:14;21.10;99.90
23991;DHT22;12205;50.600;4.608;2023-07-16T10:07:43;21.20;99.90
23991;DHT22;12205;50.600;4.608;2023-07-16T10:10:15;21.30;99.90
23991;DHT22;12205;50.600;4.608;2023-07-16T10:12:53;21.10;99.90
23991;DHT22;12205;50.600;4.608;2023-07-16T10:15:25;21.10;99.90
23991;DHT22;12205;50.600;4.608;2023-07-16T10:17:53;21.10;99.90
23991;DHT22;12205;50.600;4.608;2023-07-16T10:20:30;21.20;99.90
23991;DHT22;12205;50.600;4.608;2023-07-16T10:22:58;21.30;99.90
23991;DHT22;12205;50.600;4.608;2023-07-16T10:25:26;21.30;99.90
23991;DHT22;12205;50.600;4.608;2023-07-16T10:27:55;21.30;99.90
23991;DHT22;12205;50.600;4.608;2023-07-16T10:30:23;21.40;99.90
23991;DHT22;12205;50.600;4.608;2023-07-16T10:32:51;21.60;99.90
23991;DHT22;12205;50.600;4.608;2023-07-16T10:35:19;21.80;99.90
23991;DHT22;12205;50.600;4.608;2023-07-16T10:37:47;22.00;99.90
23991;DHT22;12205;50.600;4.608;2023-07-16T10:40:15;22.20;99.90
23991;DHT22;12205;50.600;4.608;2023-07-16T10:42:43;22.10;99.90
23991;DHT22;12205;50.600;4.608;2023-07-16T10:45:12;22.20;99.90
23991;DHT22;12205;50.600;4.608;2023-07-16T10:47:53;22.20;99.90
23991;DHT22;12205;50.600;4.608;2023-07-16T10:50:21;22.30;99.90
23991;DHT22;12205;50.600;4.608;2023-07-16T10:52:52;22.30;99.90
23991;DHT22;12205;50.600;4.608;2023-07-16T10:55:20;22.30;99.90
23991;DHT22;12205;50.600;4.608;2023-07-16T10:57:48;22.30;99.90
23991;DHT22;12205;50.600;4.608;2023-07-16T11:00:17;22.20;99.90
23991;DHT22;12205;50.600;4.608;2023-07-16T11:02:44;22.40;99.90
23991;DHT22;12205;50.600;4.608;2023-07-16T11:05:13;22.40;99.90
23991;DHT22;12205;50.600;4.608;2023-07-16T11:07:43;22.30;99.90
23991;DHT22;12205;50.600;4.608;2023-07-16T11:10:12;22.20;99.90
23991;DHT22;12205;50.600;4.608;2023-07-16T11:12:42;22.20;99.90
23991;DHT22;12205;50.600;4.608;2023-07-16T11:15:10;22.20;99.90
23991;DHT22;12205;50.600;4.608;2023-07-16T11:17:37;22.40;99.90
23991;DHT22;12205;50.600;4.608;2023-07-16T11:20:08;22.50;99.90
23991;DHT22;12205;50.600;4.608;2023-07-16T11:22:37;22.50;99.90
23991;DHT22;12205;50.600;4.608;2023-07-16T11:25:12;22.50;99.90
23991;DHT22;12205;50.600;4.608;2023-07-16T11:27:41;22.60;99.90
23991;DHT22;12205;50.600;4.608;2023-07-16T11:30:09;22.60;99.90
23991;DHT22;12205;50.600;4.608;2023-07-16T11:32:41;22.90;99.90
23991;DHT22;12205;50.600;4.608;2023-07-16T11:35:15;23.00;99.90
23991;DHT22;12205;50.600;4.608;2023-07-16T11:37:43;23.10;99.90
23991;DHT22;12205;50.600;4.608;2023-07-16T11:40:15;23.00;99.90
23991;DHT22;12205;50.600;4.608;2023-07-16T11:42:43;23.00;99.90
23991;DHT22;12205;50.600;4.608;2023-07-16T11:45:18;23.20;99.90
23991;DHT22;12205;50.600;4.608;2023-07-16T11:47:48;23.30;99.90
23991;DHT22;12205;50.600;4.608;2023-07-16T11:50:16;23.30;99.90
23991;DHT22;12205;50.600;4.608;2023-07-16T11:52:52;23.40;99.90
23991;DHT22;12205;50.600;4.608;2023-07-16T11:55:21;23.80;99.90
23991;DHT22;12205;50.600;4.608;2023-07-16T11:57:48;23.80;99.90
23991;DHT22;12205;50.600;4.608;2023-07-16T12:00:15;23.70;99.90
23991;DHT22;12205;50.600;4.608;2023-07-16T12:02:43;23.70;99.90
23991;DHT22;12205;50.600;4.608;2023-07-16T12:05:16;23.70;99.90
23991;DHT22;12205;50.600;4.608;2023-07-16T12:07:44;23.80;99.90
23991;DHT22;12205;50.600;4.608;2023-07-16T12:10:11;24.00;99.90
23991;DHT22;12205;50.600;4.608;2023-07-16T12:12:39;24.00;99.90
23991;DHT22;12205;50.600;4.608;2023-07-16T12:15:07;24.10;99.90
23991;DHT22;12205;50.600;4.608;2023-07-16T12:17:35;24.00;99.90
23991;DHT22;12205;50.600;4.608;2023-07-16T12:20:03;24.10;99.90
23991;DHT22;12205;50.600;4.608;2023-07-16T12:22:31;24.30;99.90
23991;DHT22;12205;50.600;4.608;2023-07-16T12:24:58;24.60;99.90
23991;DHT22;12205;50.600;4.608;2023-07-16T12:27:25;25.10;99.90
23991;DHT22;12205;50.600;4.608;2023-07-16T12:29:53;25.50;99.90
23991;DHT22;12205;50.600;4.608;2023-07-16T12:32:20;25.90;99.90
23991;DHT22;12205;50.600;4.608;2023-07-16T12:34:47;25.90;99.90
23991;DHT22;12205;50.600;4.608;2023-07-16T12:37:14;26.10;99.90
23991;DHT22;12205;50.600;4.608;2023-07-16T12:39:42;26.20;99.90
23991;DHT22;12205;50.600;4.608;2023-07-16T12:42:09;26.00;99.90
23991;DHT22;12205;50.600;4.608;2023-07-16T12:44:36;25.60;99.90
23991;DHT22;12205;50.600;4.608;2023-07-16T12:47:05;25.20;99.90
23991;DHT22;12205;50.600;4.608;2023-07-16T12:49:34;24.70;99.90
23991;DHT22;12205;50.600;4.608;2023-07-16T12:52:01;24.60;99.90
23991;DHT22;12205;50.600;4.608;2023-07-16T12:54:28;24.50;99.90
23991;DHT22;12205;50.600;4.608;2023-07-16T12:56:55;24.30;99.90
23991;DHT22;12205;50.600;4.608;2023-07-16T12:59:22;24.40;99.90
23991;DHT22;12205;50.600;4.608;2023-07-16T13:01:50;24.20;99.90
23991;DHT22;12205;50.600;4.608;2023-07-16T13:04:19;24.30;99.90
23991;DHT22;12205;50.600;4.608;2023-07-16T13:06:46;24.50;99.90
23991;DHT22;12205;50.600;4.608;2023-07-16T13:09:14;24.90;99.90
23991;DHT22;12205;50.600;4.608;2023-07-16T13:11:42;25.40;99.90
23991;DHT22;12205;50.600;4.608;2023-07-16T13:14:09;25.70;99.90
23991;DHT22;12205;50.600;4.608;2023-07-16T13:16:36;26.00;99.90
23991;DHT22;12205;50.600;4.608;2023-07-16T13:19:03;26.10;99.90
23991;DHT22;12205;50.600;4.608;2023-07-16T13:21:32;26.10;99.90
23991;DHT22;12205;50.600;4.608;2023-07-16T13:23:59;26.20;99.90
23991;DHT22;12205;50.600;4.608;2023-07-16T13:26:26;26.10;99.90
23991;DHT22;12205;50.600;4.608;2023-07-16T13:28:53;25.90;99.90
23991;DHT22;12205;50.600;4.608;2023-07-16T13:31:20;25.70;99.90
23991;DHT22;12205;50.600;4.608;2023-07-16T13:33:47;25.20;99.90
23991;DHT22;12205;50.600;4.608;2023-07-16T13:36:14;24.80;99.90
23991;DHT22;12205;50.600;4.608;2023-07-16T13:38:43;24.60;99.90
23991;DHT22;12205;50.600;4.608;2023-07-16T13:41:10;24.40;99.90
23991;DHT22;12205;50.600;4.608;2023-07-16T13:43:37;24.20;99.90
23991;DHT22;12205;50.600;4.608;2023-07-16T13:46:04;24.20;99.90
23991;DHT22;12205;50.600;4.608;2023-07-16T13:48:31;24.10;99.90
23991;DHT22;12205;50.600;4.608;2023-07-16T13:50:59;24.20;99.90
23991;DHT22;12205;50.600;4.608;2023-07-16T13:53:26;24.30;99.90
23991;DHT22;12205;50.600;4.608;2023-07-16T13:55:54;24.80;99.90
23991;DHT22;12205;50.600;4.608;2023-07-16T13:58:21;25.00;99.90
23991;DHT22;12205;50.600;4.608;2023-07-16T14:00:48;25.20;99.90
23991;DHT22;12205;50.600;4.608;2023-07-16T14:03:15;25.20;99.90
23991;DHT22;12205;50.600;4.608;2023-07-16T14:05:42;25.00;99.90
23991;DHT22;12205;50.600;4.608;2023-07-16T14:08:09;25.00;99.90
23991;DHT22;12205;50.600;4.608;2023-07-16T14:10:36;24.90;99.90
23991;DHT22;12205;50.600;4.608;2023-07-16T14:13:05;25.00;99.90
23991;DHT22;12205;50.600;4.608;2023-07-16T14:15:32;25.00;99.90
23991;DHT22;12205;50.600;4.608;2023-07-16T14:17:59;25.00;99.90
23991;DHT22;12205;50.600;4.608;2023-07-16T14:20:26;25.00;99.90
23991;DHT22;12205;50.600;4.608;2023-07-16T14:22:53;24.90;99.90
23991;DHT22;12205;50.600;4.608;2023-07-16T14:25:20;24.80;99.90
23991;DHT22;12205;50.600;4.608;2023-07-16T14:27:47;24.70;99.90
23991;DHT22;12205;50.600;4.608;2023-07-16T14:30:16;24.60;99.90
23991;DHT22;12205;50.600;4.608;2023-07-16T14:32:43;24.50;99.90
23991;DHT22;12205;50.600;4.608;2023-07-16T14:35:10;24.40;99.90
23991;DHT22;12205;50.600;4.608;2023-07-16T14:37:38;24.20;99.90
23991;DHT22;12205;50.600;4.608;2023-07-16T14:40:06;24.00;99.90
23991;DHT22;12205;50.600;4.608;2023-07-16T14:42:34;24.00;99.90
23991;DHT22;12205;50.600;4.608;2023-07-16T14:45:01;23.90;99.90
23991;DHT22;12205;50.600;4.608;2023-07-16T14:47:31;23.70;99.90
23991;DHT22;12205;50.600;4.608;2023-07-16T14:49:59;23.80;99.90
23991;DHT22;12205;50.600;4.608;2023-07-16T14:52:26;23.90;99.90
23991;DHT22;12205;50.600;4.608;2023-07-16T14:54:53;23.80;99.90
23991;DHT22;12205;50.600;4.608;2023-07-16T14:57:20;23.80;99.90
23991;DHT22;12205;50.600;4.608;2023-07-16T14:59:47;23.80;99.90
23991;DHT22;12205;50.600;4.608;2023-07-16T15:02:14;23.90;99.90
23991;DHT22;12205;50.600;4.608;2023-07-16T15:04:43;24.00;99.90
23991;DHT22;12205;50.600;4.608;2023-07-16T15:07:10;24.10;99.90
23991;DHT22;12205;50.600;4.608;2023-07-16T15:09:37;24.20;99.90
23991;DHT22;12205;50.600;4.608;2023-07-16T15:12:04;24.30;99.90
23991;DHT22;12205;50.600;4.608;2023-07-16T15:14:33;24.40;99.90
23991;DHT22;12205;50.600;4.608;2023-07-16T15:17:00;24.40;99.90
23991;DHT22;12205;50.600;4.608;2023-07-16T15:19:27;24.50;99.90
23991;DHT22;12205;50.600;4.608;2023-07-16T15:21:56;24.40;99.90
23991;DHT22;12205;50.600;4.608;2023-07-16T15:24:23;24.50;99.90
23991;DHT22;12205;50.600;4.608;2023-07-16T15:26:50;24.50;99.90
23991;DHT22;12205;50.600;4.608;2023-07-16T15:29:17;24.70;99.90
23991;DHT22;12205;50.600;4.608;2023-07-16T15:31:44;24.80;99.90
23991;DHT22;12205;50.600;4.608;2023-07-16T15:34:11;24.90;99.90
23991;DHT22;12205;50.600;4.608;2023-07-16T15:36:38;25.00;99.90